createdAt,value
2018-05-09T00:01:07.197Z,11.10
2018-05-09T00:03:34.763Z,9.77
2018-05-09T00:06:02.325Z,9.83
2018-05-09T00:08:29.897Z,9.80
2018-05-09T00:10:57.474Z,10.47
2018-05-09T00:13:25.100Z,9.43
2018-05-09T00:15:52.664Z,10.77
2018-05-09T00:18:20.317Z,10.37
2018-05-09T00:20:47.870Z,11.73
2018-05-09T00:23:15.605Z,13.00
2018-05-09T00:25:43.243Z,13.07
2018-05-09T00:28:10.800Z,13.20
2018-05-09T00:30:38.372Z,13.47
2018-05-09T00:33:05.932Z,15.40
2018-05-09T00:35:33.544Z,15.50
2018-05-09T00:38:01.106Z,15.57
2018-05-09T00:40:28.668Z,13.50
2018-05-09T00:42:56.221Z,14.87
2018-05-09T00:45:23.832Z,14.17
2018-05-09T00:47:51.405Z,14.50
2018-05-09T00:50:19.033Z,11.73
2018-05-09T00:52:46.719Z,11.87
2018-05-09T00:55:14.283Z,12.27
2018-05-09T00:57:41.857Z,12.27
2018-05-09T01:00:09.428Z,12.23
2018-05-09T01:02:37.006Z,10.03
2018-05-09T01:05:04.626Z,10.87
2018-05-09T01:07:32.188Z,12.60
2018-05-09T01:09:59.813Z,10.23
2018-05-09T01:12:27.376Z,9.93
2018-05-09T01:14:54.936Z,9.30
2018-05-09T01:17:22.553Z,9.70
2018-05-09T01:19:50.185Z,10.13
2018-05-09T01:22:17.825Z,10.13
2018-05-09T01:24:45.396Z,10.87
2018-05-09T01:27:13.059Z,10.40
2018-05-09T01:29:40.678Z,11.10
2018-05-09T01:32:08.237Z,9.37
2018-05-09T01:34:35.853Z,8.57
2018-05-09T01:37:03.485Z,8.90
2018-05-09T01:39:31.047Z,9.67
2018-05-09T01:41:58.621Z,10.57
2018-05-09T01:44:26.245Z,9.80
2018-05-09T01:46:53.859Z,10.80
2018-05-09T01:49:21.416Z,10.17
2018-05-09T01:51:49.041Z,10.80
2018-05-09T01:54:16.617Z,10.17
2018-05-09T01:56:44.241Z,11.60
2018-05-09T01:59:11.872Z,10.90
2018-05-09T02:01:39.435Z,11.30
2018-05-09T02:04:07.067Z,10.97
2018-05-09T02:06:34.698Z,10.80
2018-05-09T02:09:02.279Z,12.50
2018-05-09T02:11:29.849Z,13.77
2018-05-09T02:13:57.471Z,12.87
2018-05-09T02:16:25.115Z,12.37
2018-05-09T02:18:52.741Z,13.57
2018-05-09T02:21:21.266Z,13.40
2018-05-09T02:23:48.827Z,13.07
2018-05-09T02:26:16.394Z,13.03
2018-05-09T02:28:43.945Z,13.43
2018-05-09T02:31:11.633Z,12.83
2018-05-09T02:33:39.307Z,13.47
2018-05-09T02:36:06.870Z,13.17
2018-05-09T02:38:34.498Z,13.47
2018-05-09T02:41:02.098Z,12.77
2018-05-09T02:43:29.663Z,12.67
2018-05-09T02:45:57.298Z,12.93
2018-05-09T02:48:24.875Z,12.43
2018-05-09T02:50:52.456Z,13.50
2018-05-09T02:53:20.063Z,13.07
2018-05-09T02:55:47.741Z,14.13
2018-05-09T02:58:15.361Z,14.03
2018-05-09T03:00:42.932Z,15.53
2018-05-09T03:03:10.504Z,15.23
2018-05-09T03:05:38.089Z,15.30
2018-05-09T03:08:05.666Z,14.77
2018-05-09T03:10:33.224Z,15.17
2018-05-09T03:13:00.845Z,15.07
2018-05-09T03:15:28.409Z,15.00
2018-05-09T03:17:56.032Z,16.13
2018-05-09T03:20:23.610Z,16.23
2018-05-09T03:22:51.184Z,16.33
2018-05-09T03:25:18.824Z,15.07
2018-05-09T03:27:46.412Z,17.20
2018-05-09T03:30:14.021Z,17.83
2018-05-09T03:32:41.659Z,18.57
2018-05-09T03:35:09.253Z,19.07
2018-05-09T03:37:36.821Z,19.47
2018-05-09T03:40:04.454Z,20.40
2018-05-09T03:42:32.099Z,20.43
2018-05-09T03:44:59.668Z,19.70
2018-05-09T03:47:27.358Z,21.00
2018-05-09T03:49:54.920Z,20.60
2018-05-09T03:52:22.502Z,20.03
2018-05-09T03:54:50.141Z,19.67
2018-05-09T03:57:17.723Z,20.20
2018-05-09T03:59:45.296Z,22.80
2018-05-09T04:02:24.584Z,21.53
2018-05-09T04:05:04.102Z,22.63
2018-05-09T04:07:43.644Z,23.03
2018-05-09T04:10:11.212Z,20.20
2018-05-09T04:12:38.832Z,18.77
2018-05-09T04:15:06.528Z,18.33
2018-05-09T04:17:34.153Z,21.80
2018-05-09T04:20:01.777Z,19.97
2018-05-09T04:22:29.348Z,15.80
2018-05-09T04:24:56.917Z,10.03
2018-05-09T04:27:24.466Z,9.90
2018-05-09T04:29:52.088Z,8.43
2018-05-09T04:32:19.652Z,7.47
2018-05-09T04:34:47.213Z,7.40
2018-05-09T04:37:14.828Z,7.20
2018-05-09T04:39:42.480Z,7.07
2018-05-09T04:42:10.051Z,7.67
2018-05-09T04:44:37.677Z,8.40
2018-05-09T04:47:05.233Z,6.93
2018-05-09T04:49:32.800Z,7.83
2018-05-09T04:52:00.356Z,6.90
2018-05-09T04:54:28.041Z,6.60
2018-05-09T04:56:55.605Z,6.90
2018-05-09T04:59:23.164Z,7.40
2018-05-09T05:01:50.813Z,7.53
2018-05-09T05:04:18.445Z,8.23
2018-05-09T05:06:46.019Z,8.40
2018-05-09T05:09:13.651Z,8.47
2018-05-09T05:11:41.383Z,7.67
2018-05-09T05:14:08.943Z,8.70
2018-05-09T05:16:36.560Z,7.70
2018-05-09T05:19:04.131Z,7.80
2018-05-09T05:21:31.696Z,8.83
2018-05-09T05:23:59.320Z,7.93
2018-05-09T05:26:26.938Z,6.23
2018-05-09T05:28:54.533Z,6.93
2018-05-09T05:31:22.083Z,6.13
2018-05-09T05:33:49.646Z,8.33
2018-05-09T05:36:17.280Z,5.73
2018-05-09T05:38:44.921Z,5.57
2018-05-09T05:41:12.442Z,8.10
2018-05-09T05:43:40.009Z,7.07
2018-05-09T05:46:07.625Z,8.20
2018-05-09T05:48:35.241Z,6.53
2018-05-09T05:51:02.796Z,7.27
2018-05-09T05:53:30.367Z,7.73
2018-05-09T05:55:58.023Z,7.33
2018-05-09T05:58:25.588Z,6.53
2018-05-09T06:00:53.205Z,6.17
2018-05-09T06:03:20.781Z,6.20
2018-05-09T06:05:48.351Z,5.63
2018-05-09T06:08:15.993Z,6.20
2018-05-09T06:10:43.642Z,7.00
2018-05-09T06:13:11.261Z,6.67
2018-05-09T06:15:38.832Z,6.10
2018-05-09T06:18:06.405Z,5.93
2018-05-09T06:20:33.964Z,5.40
2018-05-09T06:23:01.534Z,6.13
2018-05-09T06:25:29.101Z,5.40
2018-05-09T06:27:56.665Z,6.03
2018-05-09T06:30:24.224Z,7.50
2018-05-09T06:32:51.805Z,5.83
2018-05-09T06:35:19.357Z,5.97
2018-05-09T06:37:47.042Z,5.90
2018-05-09T06:40:14.577Z,5.77
2018-05-09T06:42:42.140Z,5.70
2018-05-09T06:45:09.769Z,5.27
2018-05-09T06:47:37.341Z,4.73
2018-05-09T06:50:04.953Z,4.83
2018-05-09T06:52:32.559Z,5.63
2018-05-09T06:55:00.190Z,5.67
2018-05-09T06:57:27.758Z,5.60
2018-05-09T06:59:55.401Z,5.70
2018-05-09T07:02:22.969Z,5.80
2018-05-09T07:04:50.529Z,5.30
2018-05-09T07:07:18.163Z,4.53
2018-05-09T07:09:45.827Z,4.80
2018-05-09T07:12:13.441Z,4.83
2018-05-09T07:14:41.012Z,4.70
2018-05-09T07:17:08.589Z,4.70
2018-05-09T07:19:36.207Z,4.80
2018-05-09T07:22:03.839Z,4.27
2018-05-09T07:24:31.402Z,2.60
2018-05-09T07:26:58.976Z,3.87
2018-05-09T07:29:26.532Z,4.10
2018-05-09T07:31:54.096Z,4.93
2018-05-09T07:34:21.661Z,4.30
2018-05-09T07:36:49.224Z,6.03
2018-05-09T07:39:16.796Z,3.80
2018-05-09T07:41:44.427Z,3.90
2018-05-09T07:44:12.009Z,4.03
2018-05-09T07:46:39.574Z,3.57
2018-05-09T07:49:07.136Z,3.93
2018-05-09T07:51:34.837Z,3.53
2018-05-09T07:54:02.398Z,4.57
2018-05-09T07:56:30.016Z,4.00
2018-05-09T07:58:57.637Z,4.90
2018-05-09T08:01:25.220Z,4.03
2018-05-09T08:03:52.846Z,3.70
2018-05-09T08:06:20.473Z,4.17
2018-05-09T08:08:48.145Z,3.53
2018-05-09T08:11:15.696Z,4.50
2018-05-09T08:13:43.260Z,4.00
2018-05-09T08:16:10.829Z,3.70
2018-05-09T08:18:38.392Z,3.60
2018-05-09T08:21:06.040Z,4.30
2018-05-09T08:23:33.608Z,4.10
2018-05-09T08:26:01.165Z,4.30
2018-05-09T08:28:28.815Z,4.80
2018-05-09T08:30:56.388Z,4.77
2018-05-09T08:33:24.000Z,4.57
2018-05-09T08:35:51.559Z,4.20
2018-05-09T08:38:19.179Z,4.60
2018-05-09T08:40:46.745Z,4.40
2018-05-09T08:43:14.338Z,4.50
2018-05-09T08:45:42.020Z,4.37
2018-05-09T08:48:09.584Z,4.00
2018-05-09T08:50:37.144Z,4.10
2018-05-09T08:53:04.825Z,3.77
2018-05-09T08:55:32.411Z,4.43
2018-05-09T08:58:00.032Z,4.13
2018-05-09T09:00:27.650Z,4.47
2018-05-09T09:02:55.269Z,4.17
2018-05-09T09:05:22.841Z,4.60
2018-05-09T09:07:50.465Z,5.17
2018-05-09T09:10:18.072Z,4.57
2018-05-09T09:12:45.632Z,4.83
2018-05-09T09:15:13.234Z,4.13
2018-05-09T09:17:40.865Z,4.70
2018-05-09T09:20:08.442Z,4.50
2018-05-09T09:22:36.060Z,4.57
2018-05-09T09:25:03.625Z,4.73
2018-05-09T09:27:31.241Z,5.10
2018-05-09T09:29:58.804Z,4.80
2018-05-09T09:32:26.360Z,4.20
2018-05-09T09:34:53.973Z,4.50
2018-05-09T09:37:21.573Z,4.70
2018-05-09T09:39:50.053Z,4.43
2018-05-09T09:42:17.669Z,4.07
2018-05-09T09:44:45.256Z,5.33
2018-05-09T09:47:13.021Z,5.10
2018-05-09T09:49:40.573Z,5.20
2018-05-09T09:52:08.132Z,4.13
2018-05-09T09:54:35.697Z,5.20
2018-05-09T09:57:03.321Z,5.37
2018-05-09T09:59:30.992Z,4.83
2018-05-09T10:01:58.596Z,5.93
2018-05-09T10:04:26.161Z,5.47
2018-05-09T10:06:53.790Z,4.90
2018-05-09T10:09:21.396Z,5.90
2018-05-09T10:11:49.073Z,5.43
2018-05-09T10:14:16.646Z,5.27
2018-05-09T10:16:44.313Z,5.17
2018-05-09T10:19:11.877Z,5.50
2018-05-09T10:21:39.461Z,5.67
2018-05-09T10:24:07.081Z,4.77
2018-05-09T10:26:34.641Z,5.47
2018-05-09T10:29:02.264Z,4.73
2018-05-09T10:31:29.905Z,5.43
2018-05-09T10:33:57.585Z,4.70
2018-05-09T10:36:25.191Z,4.93
2018-05-09T10:38:52.814Z,5.03
2018-05-09T10:41:20.460Z,4.93
2018-05-09T10:43:48.029Z,5.17
2018-05-09T10:46:15.583Z,5.20
2018-05-09T10:48:43.249Z,4.97
2018-05-09T10:51:10.868Z,5.10
2018-05-09T10:53:38.425Z,4.60
2018-05-09T10:56:06.013Z,4.80
2018-05-09T10:58:33.569Z,3.93
2018-05-09T11:01:01.188Z,4.60
2018-05-09T11:03:28.801Z,4.10
2018-05-09T11:05:56.357Z,3.90
2018-05-09T11:08:23.917Z,5.40
2018-05-09T11:10:51.565Z,5.60
2018-05-09T11:13:19.176Z,4.47
2018-05-09T11:15:46.733Z,4.20
2018-05-09T11:18:14.355Z,5.20
2018-05-09T11:20:41.920Z,5.07
2018-05-09T11:23:09.540Z,4.43
2018-05-09T11:25:37.148Z,5.10
2018-05-09T11:28:04.719Z,4.80
2018-05-09T11:30:32.295Z,5.40
2018-05-09T11:32:59.868Z,4.67
2018-05-09T11:35:27.489Z,4.27
2018-05-09T11:37:55.163Z,4.93
2018-05-09T11:40:22.736Z,3.63
2018-05-09T11:42:50.371Z,5.27
2018-05-09T11:45:17.944Z,6.43
2018-05-09T11:47:45.505Z,4.77
2018-05-09T11:50:13.072Z,4.33
2018-05-09T11:52:40.635Z,4.63
2018-05-09T11:55:08.309Z,4.20
2018-05-09T11:57:35.925Z,5.17
2018-05-09T12:00:03.609Z,4.17
2018-05-09T12:02:31.215Z,4.23
2018-05-09T12:04:58.789Z,3.93
2018-05-09T12:07:26.436Z,6.30
2018-05-09T12:09:54.015Z,4.17
2018-05-09T12:12:21.629Z,4.20
2018-05-09T12:14:49.277Z,3.63
2018-05-09T12:17:16.833Z,3.60
2018-05-09T12:19:44.460Z,3.60
2018-05-09T12:22:12.161Z,3.83
2018-05-09T12:24:39.819Z,3.20
2018-05-09T12:27:07.389Z,4.27
2018-05-09T12:29:35.071Z,3.33
2018-05-09T12:32:02.693Z,3.43
2018-05-09T12:34:30.262Z,4.57
2018-05-09T12:36:57.828Z,4.10
2018-05-09T12:39:25.484Z,3.73
2018-05-09T12:41:53.189Z,4.37
2018-05-09T12:44:20.859Z,4.70
2018-05-09T12:46:48.571Z,4.90
2018-05-09T12:49:16.128Z,4.80
2018-05-09T12:51:43.753Z,3.80
2018-05-09T12:54:11.325Z,3.80
2018-05-09T12:56:38.882Z,3.33
2018-05-09T12:59:06.453Z,3.50
2018-05-09T13:01:34.018Z,3.67
2018-05-09T13:04:01.637Z,4.27
2018-05-09T13:06:29.200Z,4.62
2018-05-09T13:08:56.835Z,3.15
2018-05-09T13:11:24.466Z,4.07
2018-05-09T13:13:52.025Z,3.67
2018-05-09T13:16:19.653Z,3.40
2018-05-09T13:18:47.236Z,4.10
2018-05-09T13:21:14.872Z,4.20
2018-05-09T13:23:42.428Z,4.00
2018-05-09T13:26:10.004Z,3.80
2018-05-09T13:28:37.576Z,4.40
2018-05-09T13:31:05.237Z,3.87
2018-05-09T13:33:32.817Z,3.73
2018-05-09T13:36:00.453Z,4.37
2018-05-09T13:38:28.204Z,5.00
2018-05-09T13:40:55.754Z,4.40
2018-05-09T13:43:23.372Z,5.20
2018-05-09T13:45:51.001Z,4.17
2018-05-09T13:48:18.561Z,4.33
2018-05-09T13:50:46.136Z,5.00
2018-05-09T13:53:13.787Z,5.20
2018-05-09T13:55:41.472Z,5.93
2018-05-09T13:58:09.037Z,6.50
2018-05-09T14:00:36.604Z,5.03
2018-05-09T14:03:04.177Z,5.10
2018-05-09T14:05:31.741Z,5.10
2018-05-09T14:07:59.309Z,6.50
2018-05-09T14:10:26.868Z,5.63
2018-05-09T14:12:54.545Z,5.77
2018-05-09T14:15:22.239Z,5.67
2018-05-09T14:17:49.860Z,4.40
2018-05-09T14:20:17.512Z,4.70
2018-05-09T14:22:45.072Z,4.33
2018-05-09T14:25:12.706Z,3.00
2018-05-09T14:27:40.425Z,3.67
2018-05-09T14:30:08.113Z,3.40
2018-05-09T14:32:35.685Z,3.03
2018-05-09T14:35:03.326Z,3.23
2018-05-09T14:37:30.900Z,3.90
2018-05-09T14:39:58.461Z,2.90
2018-05-09T14:42:26.089Z,3.23
2018-05-09T14:44:53.660Z,3.20
2018-05-09T14:47:21.296Z,3.27
2018-05-09T14:49:48.872Z,3.80
2018-05-09T14:52:16.476Z,3.80
2018-05-09T14:54:44.076Z,4.43
2018-05-09T14:57:11.631Z,4.20
2018-05-09T14:59:39.210Z,4.60
2018-05-09T15:02:06.817Z,4.23
2018-05-09T15:04:35.380Z,4.37
2018-05-09T15:07:03.010Z,3.90
2018-05-09T15:09:30.573Z,4.33
2018-05-09T15:11:58.186Z,4.80
2018-05-09T15:14:25.757Z,4.37
2018-05-09T15:16:53.474Z,4.57
2018-05-09T15:19:21.050Z,4.70
2018-05-09T15:21:48.721Z,4.13
2018-05-09T15:24:16.353Z,6.17
2018-05-09T15:26:43.924Z,4.13
2018-05-09T15:29:11.492Z,4.70
2018-05-09T15:31:39.057Z,5.20
2018-05-09T15:34:06.682Z,4.30
2018-05-09T15:36:34.311Z,4.47
2018-05-09T15:39:02.035Z,4.83
2018-05-09T15:41:29.573Z,4.87
2018-05-09T15:43:57.144Z,4.87
2018-05-09T15:46:24.712Z,5.37
2018-05-09T15:48:52.278Z,5.30
2018-05-09T15:51:19.870Z,5.17
2018-05-09T15:53:47.509Z,6.80
2018-05-09T15:56:15.198Z,6.33
2018-05-09T15:58:42.803Z,4.87
2018-05-09T16:01:10.434Z,4.30
2018-05-09T16:03:38.000Z,4.70
2018-05-09T16:06:05.560Z,4.57
2018-05-09T16:08:33.189Z,4.80
2018-05-09T16:11:00.752Z,4.70
2018-05-09T16:13:28.429Z,5.20
2018-05-09T16:15:55.992Z,5.00
2018-05-09T16:18:23.552Z,4.30
2018-05-09T16:20:51.185Z,4.07
2018-05-09T16:23:18.744Z,5.23
2018-05-09T16:25:46.376Z,4.57
2018-05-09T16:28:13.948Z,5.17
2018-05-09T16:30:41.630Z,5.20
2018-05-09T16:33:09.265Z,5.20
2018-05-09T16:35:36.820Z,5.00
2018-05-09T16:38:04.396Z,5.80
2018-05-09T16:40:31.965Z,5.47
2018-05-09T16:42:59.537Z,4.87
2018-05-09T16:45:27.171Z,5.10
2018-05-09T16:47:54.788Z,5.60
2018-05-09T16:50:22.355Z,5.80
2018-05-09T16:52:49.912Z,6.90
2018-05-09T16:55:17.549Z,6.97
2018-05-09T16:57:45.167Z,5.47
2018-05-09T17:00:12.780Z,5.30
2018-05-09T17:02:40.358Z,6.47
2018-05-09T17:05:07.921Z,6.67
2018-05-09T17:07:35.513Z,5.90
2018-05-09T17:10:03.074Z,5.20
2018-05-09T17:12:30.740Z,4.70
2018-05-09T17:14:58.309Z,4.83
2018-05-09T17:17:25.880Z,6.03
2018-05-09T17:19:53.457Z,5.20
2018-05-09T17:22:32.744Z,6.30
2018-05-09T17:25:00.308Z,7.80
2018-05-09T17:27:27.869Z,5.67
2018-05-09T17:29:55.449Z,5.47
2018-05-09T17:32:23.015Z,5.23
2018-05-09T17:34:50.579Z,6.80
2018-05-09T17:37:18.199Z,7.03
2018-05-09T17:39:45.752Z,6.63
2018-05-09T17:42:13.328Z,6.70
2018-05-09T17:44:40.950Z,5.67
2018-05-09T17:47:08.516Z,6.33
2018-05-09T17:49:36.092Z,6.50
2018-05-09T17:52:03.721Z,5.60
2018-05-09T17:54:31.351Z,7.13
2018-05-09T17:56:58.907Z,6.90
2018-05-09T17:59:26.460Z,6.50
2018-05-09T18:01:54.028Z,5.90
2018-05-09T18:04:21.669Z,6.10
2018-05-09T18:06:49.226Z,7.40
2018-05-09T18:09:16.787Z,5.57
2018-05-09T18:11:44.460Z,6.70
2018-05-09T18:14:12.053Z,6.23
2018-05-09T18:16:39.614Z,6.37
2018-05-09T18:19:07.237Z,5.73
2018-05-09T18:21:34.891Z,6.57
2018-05-09T18:24:02.537Z,7.13
2018-05-09T18:26:30.104Z,5.50
2018-05-09T18:28:57.785Z,6.80
2018-05-09T18:31:25.325Z,5.47
2018-05-09T18:33:52.885Z,5.33
2018-05-09T18:36:20.504Z,6.33
2018-05-09T18:38:48.072Z,6.07
2018-05-09T18:41:15.640Z,6.90
2018-05-09T18:43:43.210Z,6.40
2018-05-09T18:46:10.864Z,6.23
2018-05-09T18:48:38.433Z,5.30
2018-05-09T18:51:06.063Z,6.40
2018-05-09T18:53:33.690Z,5.83
2018-05-09T18:56:01.249Z,8.17
2018-05-09T18:58:28.823Z,7.30
2018-05-09T19:00:56.432Z,7.57
2018-05-09T19:03:24.049Z,6.77
2018-05-09T19:05:52.599Z,7.37
2018-05-09T19:08:20.257Z,6.20
2018-05-09T19:10:47.893Z,6.03
2018-05-09T19:13:15.451Z,7.97
2018-05-09T19:15:43.062Z,7.30
2018-05-09T19:18:10.660Z,6.70
2018-05-09T19:20:38.280Z,5.43
2018-05-09T19:23:05.967Z,7.87
2018-05-09T19:25:33.609Z,6.83
2018-05-09T19:28:01.251Z,6.27
2018-05-09T19:30:28.822Z,7.90
2018-05-09T19:32:56.393Z,7.00
2018-05-09T19:35:23.954Z,6.23
2018-05-09T19:37:51.637Z,6.17
2018-05-09T19:40:19.268Z,5.93
2018-05-09T19:42:46.825Z,6.70
2018-05-09T19:45:14.449Z,6.20
2018-05-09T19:47:42.020Z,7.83
2018-05-09T19:50:09.591Z,7.07
2018-05-09T19:52:37.152Z,6.80
2018-05-09T19:55:04.891Z,6.30
2018-05-09T19:57:32.430Z,7.07
2018-05-09T20:00:00.073Z,7.17
2018-05-09T20:02:27.657Z,6.67
2018-05-09T20:04:55.283Z,6.60
2018-05-09T20:07:22.844Z,7.20
2018-05-09T20:09:50.405Z,6.93
2018-05-09T20:12:18.036Z,6.87
2018-05-09T20:14:45.600Z,6.30
2018-05-09T20:17:13.151Z,7.40
2018-05-09T20:19:40.726Z,7.27
2018-05-09T20:22:08.349Z,6.57
2018-05-09T20:24:35.917Z,8.10
2018-05-09T20:27:03.477Z,7.50
2018-05-09T20:29:31.093Z,6.40
2018-05-09T20:32:10.573Z,6.00
2018-05-09T20:34:38.255Z,6.77
2018-05-09T20:37:05.877Z,6.20
2018-05-09T20:39:33.521Z,6.67
2018-05-09T20:42:01.167Z,5.87
2018-05-09T20:44:28.817Z,4.90
2018-05-09T20:46:56.442Z,6.97
2018-05-09T20:49:24.068Z,7.23
2018-05-09T20:51:51.755Z,7.17
2018-05-09T20:54:19.396Z,7.20
2018-05-09T20:56:46.893Z,7.73
2018-05-09T20:59:14.527Z,7.13
2018-05-09T21:01:48.149Z,6.60
2018-05-09T21:04:15.716Z,6.07
2018-05-09T21:06:43.461Z,6.73
2018-05-09T21:09:11.035Z,6.97
2018-05-09T21:11:38.619Z,6.77
2018-05-09T21:14:06.266Z,6.80
2018-05-09T21:16:33.833Z,6.00
2018-05-09T21:19:01.406Z,7.03
2018-05-09T21:21:28.968Z,5.93
2018-05-09T21:23:56.538Z,5.47
2018-05-09T21:26:24.107Z,6.57
2018-05-09T21:28:51.669Z,6.37
2018-05-09T21:31:19.356Z,5.77
2018-05-09T21:33:46.912Z,6.13
2018-05-09T21:36:14.494Z,5.90
2018-05-09T21:38:42.121Z,5.37
2018-05-09T21:41:09.762Z,7.20
2018-05-09T21:43:37.288Z,6.43
2018-05-09T21:46:04.844Z,7.03
2018-05-09T21:48:32.448Z,6.20
2018-05-09T21:51:00.014Z,6.30
2018-05-09T21:53:27.583Z,6.33
2018-05-09T21:55:55.252Z,6.50
2018-05-09T21:58:22.820Z,5.70
2018-05-09T22:00:50.446Z,5.70
2018-05-09T22:03:18.080Z,6.57
2018-05-09T22:05:45.644Z,6.57
2018-05-09T22:08:13.216Z,6.30
2018-05-09T22:10:40.773Z,6.30
2018-05-09T22:13:08.357Z,6.73
2018-05-09T22:15:35.920Z,7.53
2018-05-09T22:18:03.540Z,6.60
2018-05-09T22:20:31.095Z,7.30
2018-05-09T22:22:58.667Z,5.60
2018-05-09T22:25:26.232Z,7.40
2018-05-09T22:27:53.792Z,6.50
2018-05-09T22:30:21.364Z,7.37
2018-05-09T22:32:48.901Z,6.13
2018-05-09T22:35:16.494Z,6.43
2018-05-09T22:37:44.063Z,7.00
2018-05-09T22:40:11.664Z,6.77
2018-05-09T22:42:39.289Z,7.60
2018-05-09T22:45:06.848Z,6.73
2018-05-09T22:47:34.491Z,7.30
2018-05-09T22:50:02.056Z,6.73
2018-05-09T22:52:29.745Z,6.97
2018-05-09T22:54:57.390Z,7.93
2018-05-09T22:57:24.953Z,6.37
2018-05-09T22:59:52.520Z,7.47
2018-05-09T23:02:20.141Z,7.07
2018-05-09T23:04:47.765Z,8.23
2018-05-09T23:07:15.316Z,8.40
2018-05-09T23:09:42.925Z,9.13
2018-05-09T23:12:10.540Z,8.43
2018-05-09T23:14:38.104Z,9.00
2018-05-09T23:17:05.667Z,7.50
2018-05-09T23:19:33.344Z,7.80
2018-05-09T23:22:00.969Z,8.30
2018-05-09T23:24:28.629Z,9.17
2018-05-09T23:26:56.254Z,7.47
2018-05-09T23:29:23.813Z,7.20
2018-05-09T23:31:51.441Z,9.47
2018-05-09T23:34:19.013Z,8.53
2018-05-09T23:36:46.568Z,7.87
2018-05-09T23:39:14.195Z,8.80
2018-05-09T23:41:41.813Z,8.60
2018-05-09T23:44:09.424Z,8.57
2018-05-09T23:46:37.045Z,8.77
2018-05-09T23:49:04.604Z,8.50
2018-05-09T23:51:32.173Z,8.17
2018-05-09T23:53:59.733Z,7.93
2018-05-09T23:56:27.437Z,9.87
2018-05-09T23:58:55.049Z,9.07
